Time;durP1;ratioP1;P1;durP2;ratioP2;P2;SDS_P1;SDS_P2;PMS_P1;PMS_P2;Temp;Humidity;BMP_temperature;BMP_pressure;BME280_temperature;BME280_humidity;BME280_pressure;Samples;Min_cycle;Max_cycle;Signal;HPM_P1;HPM_P2
2022/03/07 07:26:01;;;;;;;;;53.00;42.25;;;;;5.64;100.00;101952.09;6310948;22;46422;-95
2022/03/07 07:28:26;;;;;;;;;43.25;35.00;;;;;5.73;100.00;101964.97;6301971;22;45283;-89
2022/03/07 07:30:52;;;;;;;;;37.50;33.50;;;;;5.80;100.00;101972.53;6301710;22;45648;-88
2022/03/07 07:33:17;;;;;;;;;42.50;35.25;;;;;5.90;100.00;101971.63;6304134;22;45237;-88
2022/03/07 07:35:43;;;;;;;;;37.00;36.00;;;;;5.95;100.00;101973.72;6311938;22;45338;-88
2022/03/07 07:38:10;;;;;;;;;52.75;40.50;;;;;6.02;100.00;101976.97;6276846;22;48028;-91
2022/03/07 07:40:35;;;;;;;;;51.25;39.00;;;;;6.06;100.00;101969.38;6290282;22;44685;-89
2022/03/07 07:43:02;;;;;;;;;41.50;35.25;;;;;6.14;100.00;101974.50;6313945;22;45267;-88
2022/03/07 07:45:28;;;;;;;;;46.00;34.25;;;;;6.12;100.00;101976.06;6320847;22;45319;-88
2022/03/07 07:47:53;;;;;;;;;47.00;41.25;;;;;6.18;100.00;101982.59;6315837;22;47003;-88
2022/03/07 07:50:19;;;;;;;;;38.25;31.25;;;;;6.27;100.00;101980.72;6291972;22;45277;-88
2022/03/07 07:52:45;;;;;;;;;39.00;33.25;;;;;6.31;100.00;101971.47;6276956;22;45397;-89
2022/03/07 07:55:10;;;;;;;;;45.25;38.00;;;;;6.34;100.00;101962.19;6313334;22;45383;-89
2022/03/07 07:57:35;;;;;;;;;46.75;40.50;;;;;6.39;100.00;101959.06;6291409;22;47144;-88
2022/03/07 08:00:01;;;;;;;;;45.25;39.25;;;;;6.45;100.00;101963.09;6319872;22;44888;-88
2022/03/07 08:02:26;;;;;;;;;49.75;39.25;;;;;6.49;100.00;101951.22;6320865;22;45257;-88
2022/03/07 08:04:52;;;;;;;;;40.00;37.00;;;;;6.56;100.00;101957.84;6321283;22;45120;-89
2022/03/07 08:07:18;;;;;;;;;42.50;36.75;;;;;6.59;100.00;101953.78;6320697;22;45999;-89
2022/03/07 08:09:44;;;;;;;;;46.00;39.75;;;;;6.59;100.00;101958.09;6292639;22;45126;-89
2022/03/07 08:12:10;;;;;;;;;50.25;41.25;;;;;6.67;100.00;101956.09;6318845;22;45706;-88
2022/03/07 08:14:36;;;;;;;;;39.25;36.25;;;;;6.71;100.00;101952.94;6321221;22;45135;-88
2022/03/07 08:17:03;;;;;;;;;48.25;36.75;;;;;6.77;100.00;101961.28;6324476;22;45258;-87
2022/03/07 08:19:29;;;;;;;;;40.50;37.75;;;;;6.79;100.00;101953.56;6297337;22;45327;-87
2022/03/07 08:21:54;;;;;;;;;47.00;35.25;;;;;6.79;100.00;101950.94;6318587;22;45356;-88
2022/03/07 08:24:20;;;;;;;;;44.50;34.00;;;;;6.84;100.00;101954.84;6316341;22;45384;-89
2022/03/07 08:26:45;;;;;;;;;44.25;35.75;;;;;6.96;100.00;101962.75;6308778;22;46003;-88
2022/03/07 08:29:10;;;;;;;;;42.00;38.00;;;;;7.01;100.00;101947.47;6274783;22;45353;-88
2022/03/07 08:31:36;;;;;;;;;46.00;38.50;;;;;7.04;100.00;101943.38;6273734;22;45393;-88
2022/03/07 08:34:01;;;;;;;;;52.25;38.50;;;;;7.04;100.00;101948.59;6275224;22;45371;-88
2022/03/07 08:36:26;;;;;;;;;34.00;33.50;;;;;7.06;100.00;101958.28;6276758;22;45270;-88
2022/03/07 08:38:52;;;;;;;;;42.00;33.50;;;;;7.07;100.00;101940.09;6271814;22;45281;-88
2022/03/07 08:41:17;;;;;;;;;38.50;31.75;;;;;7.14;100.00;101947.63;6271224;22;45311;-87
2022/03/07 08:43:45;;;;;;;;;47.75;37.75;;;;;7.19;100.00;101928.81;6273996;22;45200;-89
2022/03/07 08:46:10;;;;;;;;;44.00;37.00;;;;;7.34;100.00;101953.53;6290194;22;47089;-88
2022/03/07 08:48:36;;;;;;;;;47.75;39.00;;;;;7.43;100.00;101940.25;6313388;22;45364;-89
2022/03/07 08:51:02;;;;;;;;;38.50;35.25;;;;;7.52;100.00;101942.69;6322137;22;45282;-88
2022/03/07 08:53:27;;;;;;;;;41.75;36.50;;;;;7.60;100.00;101938.94;6320150;22;45513;-87
2022/03/07 08:55:52;;;;;;;;;44.75;39.75;;;;;7.68;100.00;101943.88;6316506;22;46487;-89
2022/03/07 08:58:18;;;;;;;;;50.25;40.75;;;;;7.74;100.00;101941.69;6292388;22;45168;-88
2022/03/07 09:00:43;;;;;;;;;46.50;39.25;;;;;7.76;100.00;101931.34;6290350;22;45524;-89
2022/03/07 09:03:08;;;;;;;;;45.75;37.00;;;;;7.81;100.00;101940.47;6318171;22;45318;-89
2022/03/07 09:05:35;;;;;;;;;46.25;36.00;;;;;7.89;100.00;101941.03;6316214;22;54527;-88
2022/03/07 09:08:01;;;;;;;;;42.50;35.50;;;;;7.96;100.00;101940.75;6315923;22;45266;-89
2022/03/07 09:10:26;;;;;;;;;45.50;36.00;;;;;8.10;100.00;101930.38;6315848;22;45415;-89
2022/03/07 09:12:54;;;;;;;;;42.50;38.50;;;;;8.16;100.00;101938.69;6285916;22;45353;-88
2022/03/07 09:15:19;;;;;;;;;39.75;33.25;;;;;8.26;100.00;101925.50;6308569;22;46964;-88
2022/03/07 09:17:44;;;;;;;;;39.00;37.00;;;;;8.36;100.00;101929.72;6301245;22;45328;-88
2022/03/07 09:20:12;;;;;;;;;41.75;38.00;;;;;8.46;100.00;101927.75;6273496;22;45607;-88
2022/03/07 09:22:38;;;;;;;;;44.25;37.50;;;;;8.44;100.00;101930.28;6302682;22;45394;-89
2022/03/07 09:25:06;;;;;;;;;35.00;32.00;;;;;8.49;100.00;101927.97;6301325;22;45364;-89
2022/03/07 09:27:31;;;;;;;;;40.50;34.25;;;;;8.46;100.00;101928.66;6301227;22;45347;-89
2022/03/07 09:29:57;;;;;;;;;35.25;31.25;;;;;8.54;100.00;101920.47;6301340;22;45248;-88
2022/03/07 09:32:22;;;;;;;;;51.50;40.00;;;;;8.54;100.00;101926.63;6301129;22;45277;-88
2022/03/07 09:34:47;;;;;;;;;41.50;38.50;;;;;8.58;100.00;101928.69;6276037;22;46909;-89
2022/03/07 09:37:13;;;;;;;;;35.50;32.50;;;;;8.66;100.00;101916.16;6325932;22;44768;-90
2022/03/07 09:39:38;;;;;;;;;44.75;33.75;;;;;8.87;100.00;101938.53;6326442;22;44772;-89
2022/03/07 09:42:05;;;;;;;;;41.00;39.00;;;;;8.92;100.00;101931.91;6316020;22;45174;-90
2022/03/07 09:44:30;;;;;;;;;43.75;38.25;;;;;8.83;100.00;101924.31;6314233;22;47406;-89
2022/03/07 09:46:58;;;;;;;;;44.75;38.25;;;;;8.91;100.00;101917.00;6304921;22;45905;-89
2022/03/07 09:49:24;;;;;;;;;43.50;41.75;;;;;8.90;100.00;101925.66;6275810;22;45400;-90
2022/03/07 09:51:50;;;;;;;;;43.25;37.00;;;;;8.92;100.00;101921.44;6304924;22;45444;-89
2022/03/07 09:54:15;;;;;;;;;36.75;34.50;;;;;8.97;100.00;101916.56;6300314;22;47030;-89
2022/03/07 09:56:40;;;;;;;;;45.25;36.25;;;;;9.04;100.00;101917.09;6301359;22;45281;-90
2022/03/07 09:59:07;;;;;;;;;38.75;35.25;;;;;9.10;100.00;101913.97;6301927;22;45368;-89
2022/03/07 10:01:32;;;;;;;;;42.25;36.00;;;;;9.22;100.00;101923.50;6299586;22;45310;-87
2022/03/07 10:04:10;;;;;;;;;45.75;34.75;;;;;9.34;100.00;101915.59;6273388;22;46989;-89
2022/03/07 10:06:36;;;;;;;;;41.50;36.50;;;;;9.33;100.00;101914.66;6297628;22;45305;-89
2022/03/07 10:09:04;;;;;;;;;14.75;11.00;;;;;9.44;100.00;101907.56;6298276;22;45535;-89
2022/03/07 10:11:31;;;;;;;;;44.00;37.75;;;;;9.52;100.00;101904.53;6300670;22;45380;-89
2022/03/07 10:14:04;;;;;;;;;44.50;37.00;;;;;9.61;100.00;101900.84;6299428;22;48088;-88
2022/03/07 10:16:41;;;;;;;;;38.75;36.50;;;;;9.75;100.00;101913.97;6299616;22;45246;-89
2022/03/07 10:19:09;;;;;;;;;39.75;38.50;;;;;9.82;100.00;101900.47;6272609;22;45866;-88
2022/03/07 10:21:35;;;;;;;;;41.25;35.00;;;;;9.83;100.00;101897.06;6298677;22;45493;-88
2022/03/07 10:24:00;;;;;;;;;40.50;33.50;;;;;9.86;100.00;101893.72;6301557;22;45683;-88
2022/03/07 10:26:33;;;;;;;;;43.00;34.25;;;;;9.97;100.00;101883.97;6301279;22;45532;-88
2022/03/07 10:28:58;;;;;;;;;40.75;35.75;;;;;9.99;100.00;101889.31;6281909;22;45219;-89
2022/03/07 10:31:26;;;;;;;;;46.00;37.75;;;;;10.03;100.00;101894.84;6275663;22;45590;-88
2022/03/07 10:34:09;;;;;;;;;33.75;30.75;;;;;10.16;100.00;101893.03;6298567;22;48010;-89
2022/03/07 10:36:37;;;;;;;;;40.25;31.50;;;;;10.16;100.00;101888.69;6303370;22;45246;-89
2022/03/07 10:39:07;;;;;;;;;37.75;32.00;;;;;10.21;100.00;101893.31;6300311;22;45388;-89
2022/03/07 10:41:38;;;;;;;;;44.00;38.25;;;;;10.20;100.00;101881.03;6298187;22;45444;-88
2022/03/07 10:44:06;;;;;;;;;32.75;30.50;;;;;10.20;100.00;101881.94;6299576;22;46099;-89
2022/03/07 10:46:32;;;;;;;;;52.00;41.75;;;;;10.25;100.00;101877.91;6308173;22;45254;-87
2022/03/07 10:48:58;;;;;;;;;41.75;38.75;;;;;10.42;100.00;101871.91;6289353;22;45366;-88
2022/03/07 10:51:25;;;;;;;;;39.00;35.50;;;;;10.48;100.00;101867.97;6290315;22;44892;-88
2022/03/07 10:53:52;;;;;;;;;33.00;32.25;;;;;10.45;100.00;101869.47;6289741;22;47286;-89
2022/03/07 10:56:18;;;;;;;;;36.25;31.75;;;;;10.48;100.00;101867.97;6266523;22;45038;-91
2022/03/07 10:58:49;;;;;;;;;37.00;34.25;;;;;10.49;100.00;101868.84;6301204;22;45242;-89
2022/03/07 11:01:27;;;;;;;;;42.50;36.50;;;;;10.51;100.00;101864.69;6272735;22;45266;-90
2022/03/07 11:03:52;;;;;;;;;41.00;35.50;;;;;10.44;100.00;101852.81;6301256;22;46526;-88
2022/03/07 11:06:18;;;;;;;;;40.00;34.75;;;;;10.47;100.00;101857.38;6298521;22;45320;-88
2022/03/07 11:08:46;;;;;;;;;43.00;35.00;;;;;10.44;100.00;101847.56;6298246;22;45311;-89
2022/03/07 11:11:11;;;;;;;;;40.50;33.50;;;;;10.45;100.00;101845.84;6299719;22;45479;-89
2022/03/07 11:13:37;;;;;;;;;41.50;34.00;;;;;10.46;100.00;101837.19;6273003;22;48502;-89
2022/03/07 11:16:04;;;;;;;;;35.50;32.75;;;;;10.55;100.00;101843.03;6300597;22;45587;-90
2022/03/07 11:18:32;;;;;;;;;34.50;33.75;;;;;10.59;100.00;101837.16;6303666;22;45357;-89
2022/03/07 11:20:59;;;;;;;;;34.50;33.00;;;;;10.60;100.00;101831.13;6299734;22;45319;-89
2022/03/07 11:23:25;;;;;;;;;37.00;30.25;;;;;10.64;100.00;101826.06;6299763;22;45703;-91
2022/03/07 11:25:53;;;;;;;;;37.50;34.25;;;;;10.66;100.00;101825.34;6267331;22;45384;-88
2022/03/07 11:28:22;;;;;;;;;30.50;28.75;;;;;10.75;100.00;101817.13;6271399;22;45314;-89
2022/03/07 11:30:47;;;;;;;;;35.50;29.75;;;;;10.77;100.00;101811.97;6272559;22;45365;-88
2022/03/07 11:33:15;;;;;;;;;29.25;27.00;;;;;10.92;100.00;101817.28;6301708;22;45643;-89
2022/03/07 11:35:46;;;;;;;;;34.50;31.25;;;;;10.96;100.00;101829.75;6301192;22;45478;-89
2022/03/07 11:38:15;;;;;;;;;40.25;35.75;;;;;10.91;100.00;101805.84;6303297;22;45131;-92
2022/03/07 11:41:00;;;;;;;;;45.25;33.75;;;;;11.00;100.00;101816.03;6300954;22;45312;-90
2022/03/07 11:43:28;;;;;;;;;36.75;31.50;;;;;10.92;100.00;101794.53;6302747;22;45520;-89
2022/03/07 11:45:55;;;;;;;;;29.75;29.75;;;;;11.00;100.00;101800.25;6303784;22;45484;-88
2022/03/07 11:48:21;;;;;;;;;35.75;27.25;;;;;11.10;100.00;101808.69;6301973;22;45253;-88
2022/03/07 11:50:48;;;;;;;;;38.75;34.00;;;;;11.17;100.00;101796.00;6301686;22;45476;-88
2022/03/07 11:53:16;;;;;;;;;34.25;31.75;;;;;11.23;100.00;101781.44;6300063;22;46569;-88
2022/03/07 11:55:46;;;;;;;;;38.00;32.25;;;;;11.38;100.00;101786.69;6272927;22;45717;-87
2022/03/07 11:58:11;;;;;;;;;32.00;30.25;;;;;11.37;100.00;101798.00;6297415;22;45242;-88
2022/03/07 12:00:38;;;;;;;;;37.50;34.50;;;;;11.42;100.00;101779.84;6300794;22;45329;-89
2022/03/07 12:03:15;;;;;;;;;34.25;28.75;;;;;11.51;100.00;101780.41;6298916;22;47112;-88
2022/03/07 12:05:43;;;;;;;;;36.75;32.25;;;;;11.53;100.00;101767.34;6301213;22;45514;-87
2022/03/07 12:08:16;;;;;;;;;37.75;33.50;;;;;11.58;100.00;101777.31;6300145;22;45327;-87
2022/03/07 12:11:02;;;;;;;;;38.75;32.50;;;;;11.56;100.00;101770.16;6274235;22;45746;-87
2022/03/07 12:13:29;;;;;;;;;30.25;29.50;;;;;11.48;100.00;101769.72;6272495;22;47206;-87
2022/03/07 12:15:57;;;;;;;;;36.75;33.75;;;;;11.55;100.00;101770.97;6298061;22;45447;-88
2022/03/07 12:18:24;;;;;;;;;31.75;29.50;;;;;11.58;100.00;101758.91;6301866;22;45434;-88
2022/03/07 12:20:50;;;;;;;;;39.25;33.75;;;;;11.64;100.00;101765.34;6299375;22;45501;-88
2022/03/07 12:23:18;;;;;;;;;38.25;29.75;;;;;11.66;100.00;101761.06;6273318;22;48414;-87
2022/03/07 12:25:44;;;;;;;;;35.75;33.25;;;;;11.61;100.00;101748.59;6301077;22;45253;-88
2022/03/07 12:28:10;;;;;;;;;35.25;30.50;;;;;11.62;100.00;101753.00;6302191;22;45318;-86
2022/03/07 12:30:36;;;;;;;;;35.75;30.75;;;;;11.70;100.00;101749.94;6303340;22;45255;-90
2022/03/07 12:33:09;;;;;;;;;28.50;28.50;;;;;11.80;100.00;101759.25;6300329;22;47150;-90
2022/03/07 12:35:34;;;;;;;;;33.25;26.50;;;;;11.75;100.00;101747.56;6278874;22;45337;-90
2022/03/07 12:38:00;;;;;;;;;34.75;30.75;;;;;11.80;100.00;101733.81;6299205;22;45277;-91
2022/03/07 12:40:26;;;;;;;;;29.25;25.75;;;;;11.86;100.00;101741.16;6297216;22;45681;-90
2022/03/07 12:42:52;;;;;;;;;39.75;31.00;;;;;11.88;100.00;101741.28;6299964;22;46042;-90
2022/03/07 12:45:18;;;;;;;;;30.50;26.25;;;;;11.91;100.00;101741.41;6274550;22;46003;-90
2022/03/07 12:47:43;;;;;;;;;40.50;35.25;;;;;11.99;100.00;101733.94;6300917;22;45432;-91
2022/03/07 12:50:13;;;;;;;;;31.75;31.25;;;;;12.11;100.00;101733.75;6302361;22;45325;-90
2022/03/07 12:52:40;;;;;;;;;34.50;28.00;;;;;12.18;100.00;101718.41;6301345;22;45354;-89
2022/03/07 12:55:09;;;;;;;;;36.50;33.75;;;;;12.23;100.00;101716.03;6302561;22;45246;-90
2022/03/07 12:57:34;;;;;;;;;38.00;30.25;;;;;12.25;100.00;101711.72;6299673;22;45398;-88
2022/03/07 13:00:11;;;;;;;;;32.75;29.75;;;;;12.38;100.00;101715.03;6274707;22;45505;-92
2022/03/07 13:02:43;;;;;;;;;40.00;34.50;;;;;12.40;100.00;101697.56;6269958;22;46870;-90
2022/03/07 13:05:14;;;;;;;;;35.25;30.25;;;;;12.40;100.00;101702.84;6300743;22;45369;-89
2022/03/07 13:07:40;;;;;;;;;31.25;29.50;;;;;12.33;100.00;101693.72;6306314;22;45648;-87
2022/03/07 13:10:11;;;;;;;;;42.50;36.00;;;;;12.42;100.00;101688.03;6290497;22;45252;-89
2022/03/07 13:12:37;;;;;;;;;32.75;30.00;;;;;12.38;100.00;101689.59;6314679;22;45289;-87
2022/03/07 13:15:06;;;;;;;;;28.25;22.50;;;;;12.37;100.00;101687.78;6315237;22;44696;-87
2022/03/07 13:17:31;;;;;;;;;37.25;30.00;;;;;12.32;100.00;101673.47;6317696;22;45131;-87
2022/03/07 13:19:57;;;;;;;;;34.50;32.75;;;;;12.37;100.00;101673.75;6325960;22;45383;-88
2022/03/07 13:22:23;;;;;;;;;39.75;34.50;;;;;12.34;100.00;101670.94;6299264;22;46932;-89
2022/03/07 13:24:56;;;;;;;;;31.00;26.25;;;;;12.41;100.00;101659.91;6325513;22;44696;-88
2022/03/07 13:27:23;;;;;;;;;34.00;31.75;;;;;12.43;100.00;101658.25;6323678;22;45387;-88
2022/03/07 13:30:00;;;;;;;;;33.25;28.75;;;;;12.45;100.00;101651.31;6281449;22;45414;-88
2022/03/07 13:32:33;;;;;;;;;31.50;30.75;;;;;12.47;100.00;101651.44;6272934;22;48305;-88
2022/03/07 13:34:59;;;;;;;;;38.50;33.75;;;;;12.28;100.00;101630.31;6300831;22;45579;-89
2022/03/07 13:37:43;;;;;;;;;38.00;33.75;;;;;12.40;100.00;101650.19;6284676;22;45332;-89
2022/03/07 13:40:11;;;;;;;;;36.50;29.00;;;;;12.32;100.00;101647.16;6302899;22;45775;-89
2022/03/07 13:42:40;;;;;;;;;39.75;33.25;;;;;12.29;100.00;101647.88;6275591;22;48054;-89
2022/03/07 13:45:12;;;;;;;;;31.00;29.25;;;;;12.24;100.00;101652.00;6278799;22;45650;-87
2022/03/07 13:47:38;;;;;;;;;35.00;31.75;;;;;12.15;100.00;101648.88;6277219;22;45766;-89
2022/03/07 13:50:10;;;;;;;;;35.00;31.00;;;;;12.16;100.00;101646.31;6305776;22;45375;-89
2022/03/07 13:52:38;;;;;;;;;34.25;32.75;;;;;12.14;100.00;101642.72;6276774;22;46895;-89
2022/03/07 13:55:13;;;;;;;;;37.00;29.50;;;;;12.11;100.00;101621.47;6307270;22;44673;-89
2022/03/07 13:57:41;;;;;;;;;39.25;31.75;;;;;12.13;100.00;101632.09;6277767;22;45630;-89
2022/03/07 14:00:18;;;;;;;;;39.25;34.25;;;;;12.16;100.00;101630.53;6278460;22;45306;-89
2022/03/07 14:02:45;;;;;;;;;34.75;29.00;;;;;12.15;100.00;101625.19;6302090;22;46558;-88
2022/03/07 14:05:12;;;;;;;;;35.25;31.75;;;;;12.24;100.00;101622.16;6305057;22;45813;-88
2022/03/07 14:07:46;;;;;;;;;35.25;32.50;;;;;12.38;100.00;101609.72;6306128;22;45164;-90
2022/03/07 14:10:17;;;;;;;;;43.75;36.75;;;;;12.55;100.00;101609.69;6277962;22;45307;-88
2022/03/07 14:12:53;;;;;;;;;38.50;32.25;;;;;12.92;100.00;101608.91;6307978;22;45708;-89
2022/03/07 14:15:29;;;;;;;;;35.75;32.00;;;;;13.45;100.00;101612.28;6307539;22;45892;-89
2022/03/07 14:18:03;;;;;;;;;39.50;34.50;;;;;14.07;100.00;101607.19;6305359;22;45396;-89
2022/03/07 14:20:30;;;;;;;;;36.00;29.50;;;;;14.65;100.00;101600.84;6307664;22;45324;-89
2022/03/07 14:22:56;;;;;;;;;34.00;31.50;;;;;15.27;100.00;101596.31;6308165;22;46340;-88
2022/03/07 14:25:21;;;;;;;;;36.75;31.75;;;;;16.11;100.00;101590.59;6280994;22;45328;-89
2022/03/07 14:27:47;;;;;;;;;35.25;30.00;;;;;17.25;100.00;101589.94;6305263;22;45280;-89
2022/03/07 14:30:13;;;;;;;;;33.25;30.25;;;;;19.51;100.00;101587.88;6278422;22;45274;-88
2022/03/07 14:32:38;;;;;;;;;34.50;33.50;;;;;22.36;100.00;101579.84;6303729;22;46139;-90
2022/03/07 14:35:04;;;;;;;;;38.50;32.50;;;;;24.91;100.00;101573.72;6302870;22;45348;-89
2022/03/07 14:37:32;;;;;;;;;35.25;29.00;;;;;26.68;94.02;101580.94;6301370;22;45402;-88
2022/03/07 14:39:58;;;;;;;;;41.25;36.00;;;;;26.19;88.21;101589.38;6274092;22;45365;-88
2022/03/07 14:42:26;;;;;;;;;36.75;33.75;;;;;24.58;85.29;101580.03;6300719;22;45579;-88
2022/03/07 14:44:53;;;;;;;;;28.00;28.00;;;;;22.79;78.03;101589.13;6302077;22;45682;-87
2022/03/07 14:47:19;;;;;;;;;29.50;26.50;;;;;21.14;79.07;101595.28;6304535;22;45414;-87
2022/03/07 14:49:46;;;;;;;;;35.00;32.00;;;;;19.73;77.19;101604.31;6301533;22;45449;-88
2022/03/07 14:52:13;;;;;;;;;29.00;25.75;;;;;18.57;78.18;101598.97;6299371;22;47340;-88
2022/03/07 14:54:42;;;;;;;;;39.50;33.00;;;;;17.56;77.43;101593.56;6299226;22;45387;-87
2022/03/07 14:57:08;;;;;;;;;37.25;33.50;;;;;16.67;76.72;101583.69;6303553;22;45306;-87
2022/03/07 14:59:34;;;;;;;;;39.00;32.75;;;;;15.83;78.01;101585.19;6273575;22;45279;-90
2022/03/07 15:02:00;;;;;;;;;31.25;31.00;;;;;15.19;78.82;101583.69;6277861;22;47096;-87
2022/03/07 15:04:25;;;;;;;;;37.00;32.75;;;;;14.79;79.23;101582.03;6277621;22;45365;-87
2022/03/07 15:06:51;;;;;;;;;38.75;35.25;;;;;14.41;80.29;101586.66;6299252;22;45273;-88
2022/03/07 15:09:16;;;;;;;;;35.50;32.50;;;;;14.05;80.27;101585.09;6299124;22;45602;-89
2022/03/07 15:11:42;;;;;;;;;29.00;27.50;;;;;13.73;81.23;101588.13;6272500;22;46847;-88
2022/03/07 15:14:10;;;;;;;;;39.50;36.25;;;;;13.45;80.83;101570.94;6298205;22;45430;-89
2022/03/07 15:16:36;;;;;;;;;40.25;32.50;;;;;13.18;81.62;101585.56;6273097;22;45780;-88
2022/03/07 15:19:04;;;;;;;;;30.75;29.00;;;;;12.93;82.18;101571.19;6297491;22;45370;-88
2022/03/07 15:21:32;;;;;;;;;36.75;33.25;;;;;12.63;82.21;101571.44;6301000;22;45574;-88
2022/03/07 15:23:59;;;;;;;;;38.25;33.75;;;;;12.42;82.97;101580.06;6301824;22;45607;-91
2022/03/07 15:26:28;;;;;;;;;40.75;35.75;;;;;12.28;83.82;101574.09;6297438;22;45384;-88
2022/03/07 15:28:58;;;;;;;;;41.25;34.00;;;;;12.25;84.02;101568.69;6301036;22;45345;-87
2022/03/07 15:31:25;;;;;;;;;36.25;31.00;;;;;12.13;84.85;101566.28;6298419;22;45598;-87
2022/03/07 15:33:51;;;;;;;;;38.00;35.00;;;;;12.02;84.52;101578.88;6300314;22;45559;-87
2022/03/07 15:36:16;;;;;;;;;35.25;30.75;;;;;11.84;85.45;101562.19;6302759;22;45342;-87
2022/03/07 15:38:41;;;;;;;;;34.25;30.00;;;;;11.70;85.69;101560.56;6299898;22;45462;-87
2022/03/07 15:41:07;;;;;;;;;33.50;33.25;;;;;11.57;85.73;101561.63;6301032;22;45535;-87
2022/03/07 15:43:33;;;;;;;;;32.25;28.00;;;;;11.48;85.99;101560.28;6303080;22;45316;-87
2022/03/07 15:45:58;;;;;;;;;32.50;30.75;;;;;11.44;86.17;101563.56;6300584;22;45391;-88
2022/03/07 15:48:23;;;;;;;;;32.75;28.00;;;;;11.38;86.20;101550.09;6274218;22;47781;-87
2022/03/07 15:50:49;;;;;;;;;36.25;32.00;;;;;11.32;86.60;101544.47;6273554;22;46914;-87
2022/03/07 15:53:15;;;;;;;;;35.50;28.50;;;;;11.23;86.56;101540.56;6303173;22;45250;-86
2022/03/07 15:55:40;;;;;;;;;34.50;32.25;;;;;11.15;87.25;101540.13;6302618;22;45322;-87
2022/03/07 15:58:06;;;;;;;;;43.50;33.75;;;;;11.11;87.41;101534.59;6299137;22;45408;-87
2022/03/07 16:00:31;;;;;;;;;30.50;28.50;;;;;11.06;88.10;101532.63;6300287;22;46448;-87
2022/03/07 16:02:56;;;;;;;;;35.00;32.25;;;;;11.05;88.45;101545.69;6300500;22;45452;-87
2022/03/07 16:05:22;;;;;;;;;35.50;30.25;;;;;10.99;87.86;101537.44;6301706;22;45592;-87
2022/03/07 16:07:47;;;;;;;;;33.00;32.00;;;;;10.93;87.89;101538.00;6299365;22;49593;-89
2022/03/07 16:10:12;;;;;;;;;40.25;29.75;;;;;10.87;88.42;101541.19;6270972;22;53650;-87
2022/03/07 16:12:41;;;;;;;;;37.75;32.00;;;;;10.80;88.82;101534.66;6272508;22;45711;-89
2022/03/07 16:15:08;;;;;;;;;32.00;24.25;;;;;10.80;89.12;101532.03;6299674;22;45409;-87
2022/03/07 16:17:36;;;;;;;;;37.75;33.00;;;;;10.73;89.42;101525.53;6300725;22;45207;-87
2022/03/07 16:20:03;;;;;;;;;25.75;21.25;;;;;10.67;89.46;101533.06;6299297;22;46512;-88
2022/03/07 16:22:28;;;;;;;;;31.75;26.50;;;;;10.61;89.97;101530.09;6298631;22;45388;-87
2022/03/07 16:24:53;;;;;;;;;37.50;32.50;;;;;10.59;90.41;101527.34;6300171;22;45322;-87
2022/03/07 16:27:19;;;;;;;;;33.75;28.50;;;;;10.57;90.71;101517.59;6300785;22;45368;-87
2022/03/07 16:29:44;;;;;;;;;34.25;30.75;;;;;10.54;90.49;101534.06;6297782;22;47878;-86
2022/03/07 16:32:10;;;;;;;;;29.25;27.50;;;;;10.50;91.22;101532.06;6296790;22;45831;-87
2022/03/07 16:34:35;;;;;;;;;34.75;27.00;;;;;10.50;91.11;101532.97;6299971;22;45505;-87
2022/03/07 16:37:00;;;;;;;;;36.25;31.50;;;;;10.50;91.47;101532.06;6301349;22;45266;-87
2022/03/07 16:39:26;;;;;;;;;35.50;29.50;;;;;10.48;91.46;101531.97;6272201;22;47104;-87
2022/03/07 16:41:51;;;;;;;;;31.50;30.00;;;;;10.48;91.89;101538.94;6300213;22;48445;-88
2022/03/07 16:44:16;;;;;;;;;38.00;33.50;;;;;10.40;91.94;101530.63;6299101;22;45522;-87
2022/03/07 16:46:42;;;;;;;;;31.00;26.00;;;;;10.36;91.93;101529.50;6305128;22;45296;-87
2022/03/07 16:49:10;;;;;;;;;26.00;22.75;;;;;10.37;91.97;101540.94;6301060;22;46777;-88
2022/03/07 16:51:36;;;;;;;;;28.00;26.00;;;;;10.25;92.13;101539.41;6300990;22;45300;-90
2022/03/07 16:54:02;;;;;;;;;38.00;33.50;;;;;10.23;92.32;101541.00;6300531;22;45283;-88
2022/03/07 16:56:28;;;;;;;;;32.75;27.25;;;;;10.16;92.37;101530.97;6301406;22;45362;-88
2022/03/07 16:58:54;;;;;;;;;35.00;31.50;;;;;10.13;92.87;101523.81;6299494;22;45461;-88
2022/03/07 17:01:21;;;;;;;;;35.00;29.75;;;;;10.12;92.40;101529.88;6300168;22;45282;-88
2022/03/07 17:03:49;;;;;;;;;34.50;30.75;;;;;10.10;93.03;101530.59;6304383;22;45626;-88
2022/03/07 17:06:15;;;;;;;;;30.25;26.00;;;;;10.06;92.90;101535.66;6305216;22;45241;-88
2022/03/07 17:08:40;;;;;;;;;38.25;34.00;;;;;10.06;93.33;101530.41;6274234;22;46186;-87
2022/03/07 17:11:05;;;;;;;;;34.75;30.50;;;;;10.05;93.52;101527.72;6271023;22;59935;-88
2022/03/07 17:13:31;;;;;;;;;39.50;35.25;;;;;10.03;93.73;101530.22;6301524;22;45279;-87
2022/03/07 17:15:56;;;;;;;;;38.75;34.00;;;;;10.00;93.44;101532.66;6300823;22;45342;-88
2022/03/07 17:18:21;;;;;;;;;33.75;31.50;;;;;9.92;93.43;101532.19;6298805;22;46989;-89
2022/03/07 17:20:47;;;;;;;;;42.50;32.00;;;;;9.89;93.60;101539.91;6272234;22;45210;-88
2022/03/07 17:23:12;;;;;;;;;36.50;29.50;;;;;9.84;93.31;101538.72;6299840;22;45392;-88
2022/03/07 17:25:38;;;;;;;;;41.75;35.75;;;;;9.76;93.65;101532.09;6300285;22;48124;-88
2022/03/07 17:28:03;;;;;;;;;41.50;35.00;;;;;9.76;93.69;101546.09;6299030;22;46399;-88
2022/03/07 17:30:29;;;;;;;;;41.75;36.00;;;;;9.73;94.09;101545.91;6272424;22;45680;-88
2022/03/07 17:32:54;;;;;;;;;38.25;33.75;;;;;9.69;94.28;101539.56;6271698;22;45404;-88
2022/03/07 17:35:23;;;;;;;;;37.50;32.00;;;;;9.66;94.16;101547.25;6300351;22;45316;-88
2022/03/07 17:37:48;;;;;;;;;42.25;34.25;;;;;9.62;94.54;101547.84;6300288;22;45365;-88
2022/03/07 17:40:13;;;;;;;;;40.00;33.75;;;;;9.58;94.57;101541.53;6279753;22;48058;-88
2022/03/07 17:42:39;;;;;;;;;40.25;37.25;;;;;9.56;95.10;101548.38;6282970;22;45795;-87
2022/03/07 17:45:05;;;;;;;;;43.50;35.75;;;;;9.56;95.18;101552.72;6273918;22;45441;-87
2022/03/07 17:47:32;;;;;;;;;42.00;31.00;;;;;9.57;95.21;101549.28;6305751;22;46159;-88
2022/03/07 17:49:58;;;;;;;;;33.75;29.25;;;;;9.46;95.39;101536.41;6274973;22;45746;-88
2022/03/07 17:52:23;;;;;;;;;28.25;27.00;;;;;9.48;95.61;101545.28;6271997;22;45466;-87
2022/03/07 17:54:48;;;;;;;;;48.25;36.50;;;;;9.46;95.85;101548.59;6272433;22;45494;-87
2022/03/07 17:57:14;;;;;;;;;42.75;33.75;;;;;9.45;95.43;101555.59;6302080;22;48618;-90
2022/03/07 17:59:39;;;;;;;;;37.50;30.50;;;;;9.41;95.69;101547.41;6302095;22;45468;-90
2022/03/07 18:02:04;;;;;;;;;35.00;30.50;;;;;9.34;95.53;101552.28;6301317;22;45531;-89
2022/03/07 18:04:30;;;;;;;;;38.75;32.00;;;;;9.30;95.65;101550.28;6302116;22;45315;-89
2022/03/07 18:06:56;;;;;;;;;43.50;32.75;;;;;9.29;95.87;101548.47;6300513;22;45790;-88
2022/03/07 18:09:21;;;;;;;;;33.75;30.50;;;;;9.27;95.90;101556.22;6301494;22;45384;-89
2022/03/07 18:11:47;;;;;;;;;39.25;33.25;;;;;9.25;96.18;101565.69;6272822;22;45659;-89
2022/03/07 18:14:12;;;;;;;;;30.75;23.50;;;;;9.22;96.13;101562.88;6300807;22;45294;-88
2022/03/07 18:16:37;;;;;;;;;41.00;35.00;;;;;9.20;96.50;101553.13;6300962;22;46389;-88
2022/03/07 18:19:03;;;;;;;;;37.50;34.00;;;;;9.20;96.59;101560.97;6273009;22;45264;-89
2022/03/07 18:21:29;;;;;;;;;39.75;34.75;;;;;9.17;96.78;101556.44;6300328;22;45265;-89
2022/03/07 18:23:54;;;;;;;;;30.75;26.50;;;;;9.14;96.61;101554.53;6302869;22;45253;-89
2022/03/07 18:26:21;;;;;;;;;36.25;28.50;;;;;9.16;96.89;101557.25;6272547;22;48193;-89
2022/03/07 18:28:46;;;;;;;;;35.75;31.50;;;;;9.11;96.77;101566.50;6272020;22;45786;-89
2022/03/07 18:31:11;;;;;;;;;37.50;31.75;;;;;9.08;97.27;101555.84;6300090;22;45664;-89